AFR96TP LFPG-LFBO
Flight info
| Callsign | AFR96TP |
|---|---|
| Flight time | 0h 57m |
| Altitude | 35000 |
| Route | ERIXU DCT ETAMO DCT GUERE DCT NARAK |
| Aircraft | A320/M-SDE3FGHIRWY/LB1 |
Departure
| Time | 2026-05-07 08:40 |
|---|---|
| Airport | Charles de Gaulle International Airport (LFPG) |
Arrival
| Time | 2026-05-07 09:37 |
|---|---|
| Airport | Toulouse-Blagnac Airport (LFBO) |
| Time | Latitude | Longitude | Altitude | Speed | Heading |
|---|---|---|---|---|---|
| 2026-05-07 08:19 | 49.00713 | 2.57443 | 361 ft | 0 kts | 208° |
| 2026-05-07 08:30 | 49.00723 | 2.57451 | 361 ft | 4 kts | 202° |
| 2026-05-07 08:30 | 49.00748 | 2.57460 | 359 ft | 4 kts | 167° |
| 2026-05-07 08:30 | 49.00763 | 2.57446 | 364 ft | 3 kts | 89° |
| 2026-05-07 08:30 | 49.00763 | 2.57442 | 364 ft | 0 kts | 85° |
| 2026-05-07 08:33 | 49.00764 | 2.57449 | 364 ft | 3 kts | 85° |
| 2026-05-07 08:33 | 49.00767 | 2.57514 | 357 ft | 9 kts | 85° |
| 2026-05-07 08:33 | 49.00772 | 2.57626 | 354 ft | 10 kts | 84° |
| 2026-05-07 08:33 | 49.00778 | 2.57726 | 354 ft | 9 kts | 85° |
| 2026-05-07 08:34 | 49.00783 | 2.57821 | 354 ft | 12 kts | 85° |
| 2026-05-07 08:34 | 49.00795 | 2.57979 | 361 ft | 17 kts | 76° |
| 2026-05-07 08:34 | 49.00820 | 2.58163 | 354 ft | 19 kts | 83° |
| 2026-05-07 08:34 | 49.00832 | 2.58367 | 354 ft | 20 kts | 84° |
| 2026-05-07 08:35 | 49.00844 | 2.58589 | 354 ft | 22 kts | 86° |
| 2026-05-07 08:35 | 49.00856 | 2.58828 | 354 ft | 23 kts | 84° |
| 2026-05-07 08:35 | 49.00870 | 2.59082 | 354 ft | 25 kts | 85° |
| 2026-05-07 08:35 | 49.00883 | 2.59317 | 356 ft | 21 kts | 86° |
| 2026-05-07 08:36 | 49.00885 | 2.59508 | 356 ft | 15 kts | 109° |
| 2026-05-07 08:36 | 49.00796 | 2.59551 | 354 ft | 13 kts | 174° |
| 2026-05-07 08:36 | 49.00711 | 2.59561 | 354 ft | 12 kts | 175° |
| 2026-05-07 08:36 | 49.00614 | 2.59573 | 357 ft | 17 kts | 175° |
| 2026-05-07 08:37 | 49.00481 | 2.59590 | 354 ft | 21 kts | 175° |
| 2026-05-07 08:37 | 49.00332 | 2.59609 | 354 ft | 22 kts | 175° |
| 2026-05-07 08:37 | 49.00179 | 2.59628 | 354 ft | 22 kts | 175° |
| 2026-05-07 08:37 | 49.00042 | 2.59643 | 354 ft | 19 kts | 175° |
| 2026-05-07 08:38 | 48.99947 | 2.59655 | 356 ft | 9 kts | 175° |
| 2026-05-07 08:38 | 48.99889 | 2.59662 | 357 ft | 8 kts | 175° |
| 2026-05-07 08:38 | 48.99839 | 2.59669 | 354 ft | 7 kts | 175° |
| 2026-05-07 08:38 | 48.99802 | 2.59634 | 354 ft | 7 kts | 261° |
| 2026-05-07 08:39 | 48.99797 | 2.59534 | 359 ft | 25 kts | 266° |
| 2026-05-07 08:39 | 48.99762 | 2.58856 | 355 ft | 99 kts | 265° |
| 2026-05-07 08:39 | 48.99691 | 2.57503 | 351 ft | 155 kts | 265° |
| 2026-05-07 08:39 | 48.99610 | 2.55783 | 840 ft | 160 kts | 267° |
| 2026-05-07 08:40 | 48.99541 | 2.54100 | 1621 ft | 159 kts | 267° |
| 2026-05-07 08:40 | 48.99447 | 2.52418 | 2362 ft | 160 kts | 266° |
| 2026-05-07 08:40 | 48.99347 | 2.50727 | 3037 ft | 161 kts | 266° |
| 2026-05-07 08:40 | 48.99248 | 2.49020 | 3630 ft | 165 kts | 266° |
| 2026-05-07 08:41 | 48.99140 | 2.47155 | 3985 ft | 188 kts | 266° |
| 2026-05-07 08:41 | 48.99021 | 2.45056 | 4298 ft | 212 kts | 266° |
| 2026-05-07 08:41 | 48.98888 | 2.42690 | 4648 ft | 236 kts | 266° |
| 2026-05-07 08:41 | 48.98742 | 2.40067 | 5082 ft | 260 kts | 265° |
| 2026-05-07 08:42 | 48.98587 | 2.37269 | 5840 ft | 269 kts | 265° |
| 2026-05-07 08:42 | 48.98426 | 2.34405 | 6710 ft | 274 kts | 265° |
| 2026-05-07 08:42 | 48.98230 | 2.31507 | 7560 ft | 277 kts | 258° |
| 2026-05-07 08:42 | 48.97486 | 2.28804 | 8399 ft | 280 kts | 234° |
| 2026-05-07 08:43 | 48.96064 | 2.26797 | 9263 ft | 282 kts | 210° |
| 2026-05-07 08:43 | 48.94200 | 2.25877 | 10100 ft | 286 kts | 185° |
| 2026-05-07 08:43 | 48.92153 | 2.25806 | 10505 ft | 306 kts | 180° |
| 2026-05-07 08:43 | 48.89955 | 2.25811 | 10907 ft | 322 kts | 180° |
| 2026-05-07 08:44 | 48.87692 | 2.25838 | 11615 ft | 328 kts | 180° |
| 2026-05-07 08:44 | 48.85400 | 2.25867 | 12390 ft | 332 kts | 180° |
| 2026-05-07 08:44 | 48.83073 | 2.25885 | 13173 ft | 336 kts | 181° |
| 2026-05-07 08:44 | 48.80732 | 2.25893 | 13919 ft | 340 kts | 181° |
| 2026-05-07 08:45 | 48.78354 | 2.25897 | 14568 ft | 343 kts | 181° |
| 2026-05-07 08:45 | 48.75953 | 2.25900 | 15216 ft | 347 kts | 181° |
| 2026-05-07 08:45 | 48.73530 | 2.25905 | 15861 ft | 350 kts | 181° |
| 2026-05-07 08:45 | 48.71078 | 2.25910 | 16504 ft | 354 kts | 181° |
| 2026-05-07 08:46 | 48.68607 | 2.25917 | 17141 ft | 357 kts | 181° |
| 2026-05-07 08:46 | 48.66111 | 2.25919 | 17779 ft | 361 kts | 181° |
| 2026-05-07 08:46 | 48.63588 | 2.25915 | 18403 ft | 364 kts | 181° |
| 2026-05-07 08:46 | 48.61037 | 2.25910 | 18939 ft | 368 kts | 181° |
| 2026-05-07 08:47 | 48.58466 | 2.25910 | 19491 ft | 371 kts | 181° |
| 2026-05-07 08:47 | 48.55873 | 2.25910 | 20049 ft | 374 kts | 181° |
| 2026-05-07 08:47 | 48.53261 | 2.25913 | 20607 ft | 377 kts | 181° |
| 2026-05-07 08:47 | 48.50627 | 2.25916 | 21159 ft | 380 kts | 181° |
| 2026-05-07 08:48 | 48.47971 | 2.25920 | 21708 ft | 383 kts | 181° |
| 2026-05-07 08:48 | 48.45295 | 2.25924 | 22258 ft | 386 kts | 181° |
| 2026-05-07 08:48 | 48.42601 | 2.25930 | 22805 ft | 389 kts | 181° |
| 2026-05-07 08:48 | 48.39878 | 2.25937 | 23340 ft | 393 kts | 181° |
| 2026-05-07 08:49 | 48.37136 | 2.25943 | 23828 ft | 396 kts | 181° |
| 2026-05-07 08:49 | 48.34371 | 2.25947 | 24277 ft | 399 kts | 181° |
| 2026-05-07 08:49 | 48.31591 | 2.25947 | 24712 ft | 401 kts | 181° |
| 2026-05-07 08:49 | 48.28787 | 2.25948 | 25144 ft | 404 kts | 181° |
| 2026-05-07 08:50 | 48.25970 | 2.25952 | 25569 ft | 406 kts | 181° |
| 2026-05-07 08:50 | 48.23138 | 2.25955 | 25985 ft | 408 kts | 181° |
| 2026-05-07 08:50 | 48.20287 | 2.25962 | 26395 ft | 411 kts | 181° |
| 2026-05-07 08:50 | 48.17423 | 2.25968 | 26789 ft | 413 kts | 181° |
| 2026-05-07 08:51 | 48.14543 | 2.25970 | 27186 ft | 415 kts | 181° |
| 2026-05-07 08:51 | 48.11645 | 2.25971 | 27573 ft | 417 kts | 181° |
| 2026-05-07 08:51 | 48.08734 | 2.25973 | 27955 ft | 420 kts | 181° |
| 2026-05-07 08:51 | 48.05798 | 2.26026 | 28182 ft | 426 kts | 180° |
| 2026-05-07 08:52 | 48.02807 | 2.26177 | 28325 ft | 434 kts | 179° |
| 2026-05-07 08:52 | 47.99770 | 2.26394 | 28468 ft | 440 kts | 178° |
| 2026-05-07 08:52 | 47.96691 | 2.26642 | 28603 ft | 446 kts | 178° |
| 2026-05-07 08:52 | 47.93577 | 2.26888 | 28809 ft | 450 kts | 178° |
| 2026-05-07 08:53 | 47.90443 | 2.27121 | 29067 ft | 452 kts | 179° |
| 2026-05-07 08:53 | 47.87295 | 2.27337 | 29327 ft | 454 kts | 179° |
| 2026-05-07 08:53 | 47.84134 | 2.27537 | 29583 ft | 456 kts | 179° |
| 2026-05-07 08:53 | 47.80962 | 2.27730 | 29799 ft | 457 kts | 179° |
| 2026-05-07 08:54 | 47.77783 | 2.27923 | 30112 ft | 457 kts | 179° |
| 2026-05-07 08:54 | 47.74614 | 2.28117 | 30423 ft | 456 kts | 179° |
| 2026-05-07 08:54 | 47.71447 | 2.28315 | 30721 ft | 455 kts | 179° |
| 2026-05-07 08:54 | 47.68290 | 2.28515 | 31010 ft | 454 kts | 179° |
| 2026-05-07 08:55 | 47.65137 | 2.28716 | 31298 ft | 453 kts | 179° |
| 2026-05-07 08:55 | 47.61987 | 2.28917 | 31591 ft | 453 kts | 179° |
| 2026-05-07 08:55 | 47.58838 | 2.29117 | 31882 ft | 452 kts | 179° |
| 2026-05-07 08:55 | 47.55698 | 2.29315 | 32169 ft | 452 kts | 179° |
| 2026-05-07 08:56 | 47.52602 | 2.29510 | 32460 ft | 451 kts | 179° |
| 2026-05-07 08:56 | 47.49470 | 2.29707 | 32747 ft | 451 kts | 179° |
| 2026-05-07 08:56 | 47.46339 | 2.29903 | 33038 ft | 450 kts | 179° |
| 2026-05-07 08:56 | 47.43210 | 2.30095 | 33332 ft | 449 kts | 179° |
| 2026-05-07 08:57 | 47.40092 | 2.30284 | 33623 ft | 449 kts | 179° |
| 2026-05-07 08:57 | 47.36969 | 2.30477 | 33916 ft | 448 kts | 179° |
| 2026-05-07 08:57 | 47.33858 | 2.30673 | 34181 ft | 448 kts | 180° |
| 2026-05-07 08:57 | 47.30746 | 2.30871 | 34437 ft | 447 kts | 180° |
| 2026-05-07 08:58 | 47.27639 | 2.31069 | 34679 ft | 447 kts | 180° |
| 2026-05-07 08:58 | 47.24539 | 2.31263 | 34914 ft | 446 kts | 180° |
| 2026-05-07 08:58 | 47.21433 | 2.31456 | 35029 ft | 447 kts | 180° |
| 2026-05-07 08:58 | 47.18324 | 2.31650 | 35055 ft | 447 kts | 180° |
| 2026-05-07 08:59 | 47.12106 | 2.32039 | 35054 ft | 447 kts | 180° |
| 2026-05-07 08:59 | 47.05893 | 2.32424 | 35056 ft | 446 kts | 180° |
| 2026-05-07 09:00 | 47.00735 | 2.32747 | 35057 ft | 446 kts | 180° |
| 2026-05-07 09:00 | 46.94532 | 2.33122 | 35056 ft | 446 kts | 180° |
| 2026-05-07 09:01 | 46.88330 | 2.33498 | 35057 ft | 446 kts | 180° |
| 2026-05-07 09:01 | 46.82181 | 2.33009 | 35059 ft | 441 kts | 194° |
| 2026-05-07 09:02 | 46.76258 | 2.30765 | 35058 ft | 440 kts | 197° |
| 2026-05-07 09:02 | 46.70343 | 2.28475 | 35058 ft | 440 kts | 197° |
| 2026-05-07 09:03 | 46.64423 | 2.26202 | 35060 ft | 440 kts | 197° |
| 2026-05-07 09:03 | 46.58498 | 2.23947 | 35060 ft | 440 kts | 197° |
| 2026-05-07 09:04 | 46.52579 | 2.21683 | 35047 ft | 440 kts | 197° |
| 2026-05-07 09:04 | 46.46707 | 2.19438 | 35057 ft | 439 kts | 197° |
| 2026-05-07 09:05 | 46.40799 | 2.17196 | 35060 ft | 439 kts | 197° |
| 2026-05-07 09:05 | 46.34894 | 2.14948 | 35058 ft | 439 kts | 197° |
| 2026-05-07 09:06 | 46.28993 | 2.12709 | 35057 ft | 438 kts | 197° |
| 2026-05-07 09:06 | 46.23095 | 2.10480 | 35059 ft | 438 kts | 197° |
| 2026-05-07 09:07 | 46.17150 | 2.08552 | 35056 ft | 439 kts | 191° |
| 2026-05-07 09:07 | 46.11087 | 2.07370 | 35046 ft | 440 kts | 190° |
| 2026-05-07 09:08 | 46.05010 | 2.06349 | 35049 ft | 439 kts | 190° |
| 2026-05-07 09:08 | 45.98949 | 2.05290 | 35048 ft | 439 kts | 190° |
| 2026-05-07 09:09 | 45.92890 | 2.04173 | 35039 ft | 438 kts | 191° |
| 2026-05-07 09:09 | 45.86849 | 2.03051 | 35044 ft | 438 kts | 191° |
| 2026-05-07 09:10 | 45.80814 | 2.01948 | 35041 ft | 437 kts | 191° |
| 2026-05-07 09:10 | 45.74784 | 2.00850 | 35036 ft | 437 kts | 191° |
| 2026-05-07 09:11 | 45.68757 | 1.99760 | 35039 ft | 436 kts | 191° |
| 2026-05-07 09:11 | 45.62740 | 1.98673 | 35054 ft | 436 kts | 191° |
| 2026-05-07 09:12 | 45.56725 | 1.97589 | 35039 ft | 435 kts | 191° |
| 2026-05-07 09:12 | 45.50724 | 1.96511 | 35029 ft | 435 kts | 191° |
| 2026-05-07 09:13 | 45.44763 | 1.95435 | 35036 ft | 434 kts | 191° |
| 2026-05-07 09:13 | 45.38772 | 1.94357 | 35029 ft | 434 kts | 191° |
| 2026-05-07 09:14 | 45.32779 | 1.93276 | 35024 ft | 434 kts | 191° |
| 2026-05-07 09:14 | 45.26791 | 1.92214 | 35032 ft | 434 kts | 191° |
| 2026-05-07 09:15 | 45.20805 | 1.91140 | 35039 ft | 434 kts | 191° |
| 2026-05-07 09:15 | 45.14818 | 1.90072 | 35023 ft | 433 kts | 191° |
| 2026-05-07 09:16 | 45.08835 | 1.89010 | 35031 ft | 433 kts | 191° |
| 2026-05-07 09:16 | 45.02856 | 1.87955 | 35029 ft | 433 kts | 191° |
| 2026-05-07 09:17 | 44.96877 | 1.86899 | 35019 ft | 433 kts | 191° |
| 2026-05-07 09:17 | 44.90903 | 1.85846 | 35017 ft | 433 kts | 191° |
| 2026-05-07 09:18 | 44.87912 | 1.85316 | 34337 ft | 436 kts | 191° |
| 2026-05-07 09:18 | 44.84882 | 1.84775 | 33303 ft | 440 kts | 191° |
| 2026-05-07 09:18 | 44.81844 | 1.84237 | 32337 ft | 441 kts | 191° |
| 2026-05-07 09:18 | 44.78792 | 1.83699 | 31360 ft | 443 kts | 191° |
| 2026-05-07 09:19 | 44.75736 | 1.83165 | 30382 ft | 444 kts | 190° |
| 2026-05-07 09:19 | 44.72647 | 1.82625 | 29194 ft | 449 kts | 190° |
| 2026-05-07 09:19 | 44.69555 | 1.82085 | 28277 ft | 446 kts | 189° |
| 2026-05-07 09:19 | 44.66510 | 1.81557 | 27709 ft | 436 kts | 189° |
| 2026-05-07 09:20 | 44.63516 | 1.81037 | 27025 ft | 431 kts | 189° |
| 2026-05-07 09:20 | 44.60556 | 1.80523 | 26363 ft | 426 kts | 189° |
| 2026-05-07 09:20 | 44.57631 | 1.80015 | 25698 ft | 421 kts | 189° |
| 2026-05-07 09:20 | 44.54737 | 1.79509 | 25073 ft | 417 kts | 188° |
| 2026-05-07 09:21 | 44.51872 | 1.79010 | 24439 ft | 414 kts | 188° |
| 2026-05-07 09:21 | 44.49027 | 1.78515 | 23812 ft | 410 kts | 188° |
| 2026-05-07 09:21 | 44.46201 | 1.78024 | 23132 ft | 407 kts | 188° |
| 2026-05-07 09:21 | 44.43402 | 1.77535 | 22542 ft | 402 kts | 188° |
| 2026-05-07 09:22 | 44.40644 | 1.77055 | 21976 ft | 397 kts | 188° |
| 2026-05-07 09:22 | 44.37949 | 1.76586 | 21455 ft | 393 kts | 188° |
| 2026-05-07 09:22 | 44.35252 | 1.76120 | 20937 ft | 389 kts | 188° |
| 2026-05-07 09:22 | 44.32576 | 1.75661 | 20441 ft | 385 kts | 188° |
| 2026-05-07 09:23 | 44.29930 | 1.75208 | 19954 ft | 382 kts | 188° |
| 2026-05-07 09:23 | 44.27306 | 1.74757 | 19483 ft | 378 kts | 188° |
| 2026-05-07 09:23 | 44.24711 | 1.74310 | 19023 ft | 375 kts | 188° |
| 2026-05-07 09:23 | 44.22135 | 1.73866 | 18549 ft | 371 kts | 188° |
| 2026-05-07 09:24 | 44.19580 | 1.73424 | 18047 ft | 369 kts | 188° |
| 2026-05-07 09:24 | 44.17046 | 1.72987 | 17566 ft | 365 kts | 188° |
| 2026-05-07 09:24 | 44.14540 | 1.72555 | 17088 ft | 361 kts | 188° |
| 2026-05-07 09:24 | 44.12056 | 1.72125 | 16611 ft | 358 kts | 188° |
| 2026-05-07 09:25 | 44.09590 | 1.71702 | 16111 ft | 356 kts | 188° |
| 2026-05-07 09:25 | 44.07140 | 1.71279 | 15632 ft | 354 kts | 188° |
| 2026-05-07 09:25 | 44.04699 | 1.70861 | 15133 ft | 353 kts | 187° |
| 2026-05-07 09:25 | 44.02261 | 1.70447 | 14632 ft | 353 kts | 187° |
| 2026-05-07 09:26 | 43.99822 | 1.70033 | 14116 ft | 352 kts | 187° |
| 2026-05-07 09:26 | 43.97394 | 1.69617 | 13572 ft | 352 kts | 187° |
| 2026-05-07 09:26 | 43.94964 | 1.69203 | 13037 ft | 351 kts | 188° |
| 2026-05-07 09:26 | 43.92550 | 1.68792 | 12511 ft | 348 kts | 188° |
| 2026-05-07 09:27 | 43.90536 | 1.68448 | 12068 ft | 347 kts | 188° |
| 2026-05-07 09:27 | 43.89626 | 1.68292 | 11849 ft | 346 kts | 188° |
| 2026-05-07 09:27 | 43.84870 | 1.67480 | 10799 ft | 343 kts | 189° |
| 2026-05-07 09:28 | 43.82541 | 1.67086 | 10650 ft | 330 kts | 189° |
| 2026-05-07 09:28 | 43.80314 | 1.66709 | 10521 ft | 316 kts | 189° |
| 2026-05-07 09:28 | 43.78195 | 1.66352 | 10400 ft | 305 kts | 189° |
| 2026-05-07 09:28 | 43.76128 | 1.66001 | 10242 ft | 295 kts | 189° |
| 2026-05-07 09:29 | 43.74080 | 1.65654 | 10004 ft | 290 kts | 189° |
| 2026-05-07 09:29 | 43.72083 | 1.65315 | 9872 ft | 289 kts | 189° |
| 2026-05-07 09:29 | 43.70088 | 1.64975 | 9652 ft | 290 kts | 189° |
| 2026-05-07 09:29 | 43.68109 | 1.64638 | 9178 ft | 291 kts | 189° |
| 2026-05-07 09:30 | 43.66080 | 1.64294 | 8742 ft | 290 kts | 189° |
| 2026-05-07 09:30 | 43.64086 | 1.63960 | 8390 ft | 286 kts | 189° |
| 2026-05-07 09:30 | 43.62118 | 1.63629 | 7973 ft | 283 kts | 189° |
| 2026-05-07 09:30 | 43.60175 | 1.63301 | 7302 ft | 280 kts | 189° |
| 2026-05-07 09:31 | 43.58260 | 1.62979 | 6742 ft | 274 kts | 190° |
| 2026-05-07 09:31 | 43.56400 | 1.62667 | 6323 ft | 263 kts | 190° |
| 2026-05-07 09:31 | 43.54661 | 1.62377 | 6117 ft | 244 kts | 189° |
| 2026-05-07 09:31 | 43.53002 | 1.62099 | 5638 ft | 238 kts | 189° |
| 2026-05-07 09:32 | 43.51369 | 1.61806 | 5145 ft | 236 kts | 193° |
| 2026-05-07 09:32 | 43.49843 | 1.61023 | 4709 ft | 232 kts | 213° |
| 2026-05-07 09:32 | 43.48611 | 1.59639 | 4556 ft | 231 kts | 230° |
| 2026-05-07 09:32 | 43.47742 | 1.57787 | 4379 ft | 231 kts | 249° |
| 2026-05-07 09:33 | 43.47393 | 1.55721 | 4250 ft | 221 kts | 268° |
| 2026-05-07 09:33 | 43.47560 | 1.53641 | 4093 ft | 218 kts | 287° |
| 2026-05-07 09:33 | 43.48207 | 1.51773 | 3880 ft | 216 kts | 306° |
| 2026-05-07 09:33 | 43.49250 | 1.50324 | 3618 ft | 213 kts | 323° |
| 2026-05-07 09:34 | 43.50430 | 1.49106 | 3352 ft | 212 kts | 324° |
| 2026-05-07 09:34 | 43.51608 | 1.47888 | 3068 ft | 211 kts | 324° |
| 2026-05-07 09:34 | 43.52785 | 1.46670 | 2787 ft | 212 kts | 324° |
| 2026-05-07 09:34 | 43.53944 | 1.45468 | 2495 ft | 203 kts | 324° |
| 2026-05-07 09:35 | 43.55040 | 1.44332 | 2253 ft | 191 kts | 323° |
| 2026-05-07 09:35 | 43.56071 | 1.43262 | 1963 ft | 180 kts | 324° |
| 2026-05-07 09:35 | 43.57040 | 1.42257 | 1733 ft | 170 kts | 324° |
| 2026-05-07 09:35 | 43.57964 | 1.41298 | 1517 ft | 156 kts | 324° |
| 2026-05-07 09:36 | 43.58799 | 1.40430 | 1263 ft | 145 kts | 324° |
| 2026-05-07 09:36 | 43.59589 | 1.39606 | 1104 ft | 140 kts | 323° |
| 2026-05-07 09:36 | 43.60359 | 1.38809 | 939 ft | 137 kts | 324° |
| 2026-05-07 09:36 | 43.61114 | 1.38035 | 741 ft | 135 kts | 322° |
| 2026-05-07 09:37 | 43.61862 | 1.37249 | 554 ft | 136 kts | 323° |
| 2026-05-07 09:37 | 43.62574 | 1.36505 | 486 ft | 110 kts | 322° |
| 2026-05-07 09:37 | 43.63060 | 1.36005 | 490 ft | 68 kts | 323° |
| 2026-05-07 09:37 | 43.63367 | 1.35681 | 487 ft | 34 kts | 323° |
| 2026-05-07 09:38 | 43.63500 | 1.35542 | 494 ft | 18 kts | 322° |
| 2026-05-07 09:38 | 43.63596 | 1.35542 | 490 ft | 16 kts | 56° |
| 2026-05-07 09:38 | 43.63669 | 1.35668 | 489 ft | 18 kts | 52° |
| 2026-05-07 09:38 | 43.63749 | 1.35813 | 485 ft | 20 kts | 53° |
| 2026-05-07 09:39 | 43.63815 | 1.35952 | 493 ft | 15 kts | 83° |
| 2026-05-07 09:39 | 43.63748 | 1.36062 | 491 ft | 16 kts | 143° |
| 2026-05-07 09:39 | 43.63659 | 1.36155 | 494 ft | 16 kts | 142° |
| 2026-05-07 09:39 | 43.63567 | 1.36253 | 490 ft | 17 kts | 142° |
| 2026-05-07 09:40 | 43.63469 | 1.36354 | 492 ft | 18 kts | 143° |
| 2026-05-07 09:40 | 43.63365 | 1.36461 | 494 ft | 19 kts | 143° |
| 2026-05-07 09:40 | 43.63251 | 1.36578 | 489 ft | 21 kts | 143° |
| 2026-05-07 09:40 | 43.63127 | 1.36707 | 494 ft | 23 kts | 143° |
| 2026-05-07 09:41 | 43.62996 | 1.36844 | 491 ft | 23 kts | 143° |
| 2026-05-07 09:41 | 43.62871 | 1.36973 | 491 ft | 16 kts | 143° |
| 2026-05-07 09:41 | 43.62836 | 1.37071 | 490 ft | 11 kts | 68° |
| 2026-05-07 09:41 | 43.62883 | 1.37159 | 492 ft | 12 kts | 53° |
| 2026-05-07 09:42 | 43.62895 | 1.37250 | 494 ft | 9 kts | 116° |
| 2026-05-07 09:42 | 43.62851 | 1.37304 | 489 ft | 8 kts | 142° |
| 2026-05-07 09:42 | 43.62823 | 1.37339 | 494 ft | 3 kts | 116° |
| 2026-05-07 09:42 | 43.62836 | 1.37364 | 490 ft | 3 kts | 38° |
| 2026-05-07 09:43 | 43.62850 | 1.37382 | 494 ft | 2 kts | 46° |
| 2026-05-07 09:43 | 43.62862 | 1.37399 | 486 ft | 4 kts | 47° |
| 2026-05-07 09:43 | 43.62873 | 1.37416 | 492 ft | 0 kts | 47° |